sensor_id;sensor_type;location;lat;lon;timestamp;pressure;altitude;pressure_sealevel;temperature;humidity
49801;BME280;35698;50.232;30.540;2023-04-20T17:08:37;100087.67;;;13.67;100.00
49801;BME280;35698;50.232;30.540;2023-04-20T17:09:40;100090.38;;;14.02;100.00
49801;BME280;35698;50.232;30.540;2023-04-20T17:10:58;100098.61;;;14.58;95.59
49801;BME280;35698;50.232;30.540;2023-04-20T17:12:01;100091.25;;;14.61;94.06
49801;BME280;35698;50.232;30.540;2023-04-20T17:13:19;100098.30;;;14.96;92.51
49801;BME280;35698;50.232;30.540;2023-04-20T17:14:22;100092.41;;;13.98;93.83
49801;BME280;35698;50.232;30.540;2023-04-20T17:15:40;100097.33;;;13.92;97.04
49801;BME280;35698;50.232;30.540;2023-04-20T17:16:43;100097.18;;;13.82;98.24
49801;BME280;35698;50.232;30.540;2023-04-20T17:18:04;100093.82;;;13.91;96.73
49801;BME280;35698;50.232;30.540;2023-04-20T17:19:07;100098.25;;;13.80;96.52
49801;BME280;35698;50.232;30.540;2023-04-20T17:20:19;100099.98;;;13.92;96.43
49801;BME280;35698;50.232;30.540;2023-04-20T17:21:22;100091.65;;;13.85;96.61
49801;BME280;35698;50.232;30.540;2023-04-20T17:22:33;100093.06;;;14.61;94.45
49801;BME280;35698;50.232;30.540;2023-04-20T17:23:37;100092.25;;;14.94;89.52
49801;BME280;35698;50.232;30.540;2023-04-20T17:24:49;100088.33;;;14.53;89.96
49801;BME280;35698;50.232;30.540;2023-04-20T17:25:52;100094.45;;;14.19;93.53
49801;BME280;35698;50.232;30.540;2023-04-20T17:27:14;100091.61;;;14.33;92.79
49801;BME280;35698;50.232;30.540;2023-04-20T17:28:17;100096.48;;;14.15;93.94
49801;BME280;35698;50.232;30.540;2023-04-20T17:29:29;100094.72;;;14.27;93.91
49801;BME280;35698;50.232;30.540;2023-04-20T17:30:32;100089.59;;;14.13;93.98
49801;BME280;35698;50.232;30.540;2023-04-20T17:31:44;100099.42;;;14.23;93.71
49801;BME280;35698;50.232;30.540;2023-04-20T17:32:48;100095.86;;;14.11;93.58
49801;BME280;35698;50.232;30.540;2023-04-20T17:34:05;100088.05;;;14.21;93.80
49801;BME280;35698;50.232;30.540;2023-04-20T17:35:09;100091.00;;;14.05;93.73
49801;BME280;35698;50.232;30.540;2023-04-20T17:36:20;100093.94;;;14.14;94.08
49801;BME280;35698;50.232;30.540;2023-04-20T17:37:23;100090.38;;;14.02;93.27
49801;BME280;35698;50.232;30.540;2023-04-20T17:38:35;100087.78;;;14.13;91.92
49801;BME280;35698;50.232;30.540;2023-04-20T17:39:38;100096.88;;;13.98;92.16
49801;BME280;35698;50.232;30.540;2023-04-20T17:40:49;100088.34;;;14.05;91.98
49801;BME280;35698;50.232;30.540;2023-04-20T17:42:01;100089.30;;;14.04;91.96
49801;BME280;35698;50.232;30.540;2023-04-20T17:43:04;100092.86;;;13.92;91.68
49801;BME280;35698;50.232;30.540;2023-04-20T17:44:08;100091.28;;;13.90;92.24
49801;BME280;35698;50.232;30.540;2023-04-20T17:45:19;100080.09;;;13.97;91.94
49801;BME280;35698;50.232;30.540;2023-04-20T17:46:23;100083.91;;;14.41;90.37
49801;BME280;35698;50.232;30.540;2023-04-20T17:47:30;100085.70;;;14.64;88.26
49801;BME280;35698;50.232;30.540;2023-04-20T17:48:44;100081.85;;;14.91;85.24
49801;BME280;35698;50.232;30.540;2023-04-20T17:49:47;100081.24;;;14.87;84.99
49801;BME280;35698;50.232;30.540;2023-04-20T17:50:51;100088.14;;;14.90;84.75
49801;BME280;35698;50.232;30.540;2023-04-20T17:52:02;100086.81;;;14.95;85.10
49801;BME280;35698;50.232;30.540;2023-04-20T17:53:06;100082.56;;;14.82;84.34
49801;BME280;35698;50.232;30.540;2023-04-20T17:54:17;100088.98;;;14.90;83.04
49801;BME280;35698;50.232;30.540;2023-04-20T17:55:29;100090.80;;;14.90;82.47
49801;BME280;35698;50.232;30.540;2023-04-20T17:56:32;100098.52;;;14.82;82.26
49801;BME280;35698;50.232;30.540;2023-04-20T17:57:53;100097.91;;;14.78;82.30
49801;BME280;35698;50.232;30.540;2023-04-20T17:59:05;100099.25;;;14.84;80.62
49801;BME280;35698;50.232;30.540;2023-04-20T18:00:09;100105.64;;;14.11;82.78
49801;BME280;35698;50.232;30.540;2023-04-20T18:01:30;100097.41;;;14.62;82.41
49801;BME280;35698;50.232;30.540;2023-04-20T18:02:42;100102.49;;;14.76;80.67
49801;BME280;35698;50.232;30.540;2023-04-20T18:03:46;100105.88;;;14.78;80.09
49801;BME280;35698;50.232;30.540;2023-04-20T18:05:07;100110.23;;;14.79;80.02
49801;BME280;35698;50.232;30.540;2023-04-20T18:06:25;100101.65;;;14.75;79.48
49801;BME280;35698;50.232;30.540;2023-04-20T18:07:28;100102.98;;;14.81;79.91
49801;BME280;35698;50.232;30.540;2023-04-20T18:08:50;100105.88;;;14.78;80.25
49801;BME280;35698;50.232;30.540;2023-04-20T18:10:02;100101.77;;;14.74;81.25
49801;BME280;35698;50.232;30.540;2023-04-20T18:11:05;100106.00;;;14.65;80.11
49801;BME280;35698;50.232;30.540;2023-04-20T18:12:27;100101.97;;;14.49;81.27
49801;BME280;35698;50.232;30.540;2023-04-20T18:13:49;100112.98;;;14.55;81.79
49801;BME280;35698;50.232;30.540;2023-04-20T18:15:00;100112.87;;;14.57;82.48
49801;BME280;35698;50.232;30.540;2023-04-20T18:16:04;100121.65;;;14.46;82.25
49801;BME280;35698;50.232;30.540;2023-04-20T18:17:26;100116.22;;;14.48;82.81
49801;BME280;35698;50.232;30.540;2023-04-20T18:18:48;100120.06;;;14.43;83.86
49801;BME280;35698;50.232;30.540;2023-04-20T18:20:00;100116.48;;;14.56;84.46
49801;BME280;35698;50.232;30.540;2023-04-20T18:21:04;100109.20;;;14.47;84.21
49801;BME280;35698;50.232;30.540;2023-04-20T18:22:25;100113.91;;;14.43;82.27
49801;BME280;35698;50.232;30.540;2023-04-20T18:23:47;100118.37;;;14.42;82.36
49801;BME280;35698;50.232;30.540;2023-04-20T18:24:58;100126.27;;;14.55;82.72
49801;BME280;35698;50.232;30.540;2023-04-20T18:26:04;100114.95;;;14.40;82.95
49801;BME280;35698;50.232;30.540;2023-04-20T18:27:22;100107.09;;;14.63;81.46
49801;BME280;35698;50.232;30.540;2023-04-20T18:28:25;100126.55;;;14.39;81.21
49801;BME280;35698;50.232;30.540;2023-04-20T18:29:29;100117.33;;;14.32;81.24
49801;BME280;35698;50.232;30.540;2023-04-20T18:30:50;100106.94;;;14.05;83.13
49801;BME280;35698;50.232;30.540;2023-04-20T18:32:02;100124.45;;;14.32;81.88
49801;BME280;35698;50.232;30.540;2023-04-20T18:33:05;100111.23;;;14.19;81.55
49801;BME280;35698;50.232;30.540;2023-04-20T18:34:20;100118.52;;;14.28;81.10
49801;BME280;35698;50.232;30.540;2023-04-20T18:35:25;100123.78;;;14.17;81.47
49801;BME280;35698;50.232;30.540;2023-04-20T18:36:37;100128.64;;;14.23;80.70
49801;BME280;35698;50.232;30.540;2023-04-20T18:37:40;100123.27;;;14.12;81.14
49801;BME280;35698;50.232;30.540;2023-04-20T18:38:52;100123.78;;;14.17;81.94
49801;BME280;35698;50.232;30.540;2023-04-20T18:39:56;100121.58;;;14.11;81.80
49801;BME280;35698;50.232;30.540;2023-04-20T18:41:08;100123.78;;;14.17;80.99
49801;BME280;35698;50.232;30.540;2023-04-20T18:42:11;100117.39;;;13.96;80.65
49801;BME280;35698;50.232;30.540;2023-04-20T18:43:23;100118.34;;;13.95;81.11
49801;BME280;35698;50.232;30.540;2023-04-20T18:44:41;100113.66;;;13.98;80.41
49801;BME280;35698;50.232;30.540;2023-04-20T18:45:44;100110.05;;;13.75;81.30
49801;BME280;35698;50.232;30.540;2023-04-20T18:46:56;100111.97;;;13.73;81.47
49801;BME280;35698;50.232;30.540;2023-04-20T18:48:13;100108.36;;;13.74;81.49
49801;BME280;35698;50.232;30.540;2023-04-20T18:49:19;100113.40;;;13.54;81.53
49801;BME280;35698;50.232;30.540;2023-04-20T18:50:33;100112.44;;;13.55;80.67
49801;BME280;35698;50.232;30.540;2023-04-20T18:51:36;100111.51;;;13.43;81.15
49801;BME280;35698;50.232;30.540;2023-04-20T18:52:58;100122.97;;;13.43;82.01
49801;BME280;35698;50.232;30.540;2023-04-20T18:54:09;100124.86;;;13.54;82.22
49801;BME280;35698;50.232;30.540;2023-04-20T18:55:12;100123.92;;;13.42;82.07
49801;BME280;35698;50.232;30.540;2023-04-20T18:56:34;100127.73;;;13.51;82.02
49801;BME280;35698;50.232;30.540;2023-04-20T18:57:46;100124.95;;;13.65;82.14
49801;BME280;35698;50.232;30.540;2023-04-20T18:58:49;100127.08;;;13.60;82.14
49801;BME280;35698;50.232;30.540;2023-04-20T19:00:11;100135.78;;;13.62;82.08
49801;BME280;35698;50.232;30.540;2023-04-20T19:01:25;100136.89;;;13.84;81.67
49801;BME280;35698;50.232;30.540;2023-04-20T19:02:28;100139.48;;;13.72;81.84
49801;BME280;35698;50.232;30.540;2023-04-20T19:03:50;100139.99;;;13.77;81.45
49801;BME280;35698;50.232;30.540;2023-04-20T19:05:01;100134.12;;;13.85;80.91
49801;BME280;35698;50.232;30.540;2023-04-20T19:06:05;100135.86;;;13.73;81.31
49801;BME280;35698;50.232;30.540;2023-04-20T19:07:26;100136.60;;;13.75;81.13
49801;BME280;35698;50.232;30.540;2023-04-20T19:08:37;100134.98;;;13.86;80.01
49801;BME280;35698;50.232;30.540;2023-04-20T19:09:41;100135.75;;;13.75;79.57
49801;BME280;35698;50.232;30.540;2023-04-20T19:11:02;100137.56;;;13.74;79.71
49801;BME280;35698;50.232;30.540;2023-04-20T19:12:14;100143.20;;;13.94;80.81
49801;BME280;35698;50.232;30.540;2023-04-20T19:13:17;100140.11;;;13.76;81.42
49801;BME280;35698;50.232;30.540;2023-04-20T19:14:38;100140.11;;;13.76;81.17
49801;BME280;35698;50.232;30.540;2023-04-20T19:15:55;100140.40;;;13.84;80.82
49801;BME280;35698;50.232;30.540;2023-04-20T19:16:58;100143.09;;;13.71;82.06
49801;BME280;35698;50.232;30.540;2023-04-20T19:18:20;100136.93;;;13.71;82.71
49801;BME280;35698;50.232;30.540;2023-04-20T19:19:32;100136.64;;;13.87;82.68
49801;BME280;35698;50.232;30.540;2023-04-20T19:20:35;100142.13;;;13.72;82.61
49801;BME280;35698;50.232;30.540;2023-04-20T19:21:39;100141.80;;;13.77;82.24
49801;BME280;35698;50.232;30.540;2023-04-20T19:22:51;100133.88;;;13.88;82.78
49801;BME280;35698;50.232;30.540;2023-04-20T19:23:54;100135.42;;;13.80;83.37
49801;BME280;35698;50.232;30.540;2023-04-20T19:25:06;100147.27;;;13.87;83.67
49801;BME280;35698;50.232;30.540;2023-04-20T19:26:18;100145.59;;;13.86;82.43
49801;BME280;35698;50.232;30.540;2023-04-20T19:27:22;100143.61;;;13.76;82.60
49801;BME280;35698;50.232;30.540;2023-04-20T19:28:33;100145.45;;;13.87;82.32
49801;BME280;35698;50.232;30.540;2023-04-20T19:29:36;100139.25;;;13.75;82.59
49801;BME280;35698;50.232;30.540;2023-04-20T19:30:48;100148.73;;;13.91;81.73
49801;BME280;35698;50.232;30.540;2023-04-20T19:31:52;100155.81;;;13.79;81.58
49801;BME280;35698;50.232;30.540;2023-04-20T19:33:03;100160.09;;;13.93;81.00
49801;BME280;35698;50.232;30.540;2023-04-20T19:34:07;100164.89;;;13.88;80.78
49801;BME280;35698;50.232;30.540;2023-04-20T19:35:13;100157.66;;;13.90;80.20
49801;BME280;35698;50.232;30.540;2023-04-20T19:36:31;100152.09;;;14.05;79.91
49801;BME280;35698;50.232;30.540;2023-04-20T19:37:35;100151.91;;;13.96;79.73
49801;BME280;35698;50.232;30.540;2023-04-20T19:38:46;100146.22;;;14.13;79.55
49801;BME280;35698;50.232;30.540;2023-04-20T19:39:50;100143.39;;;14.03;78.88
49801;BME280;35698;50.232;30.540;2023-04-20T19:41:05;100147.06;;;14.14;78.13
49801;BME280;35698;50.232;30.540;2023-04-20T19:42:08;100139.14;;;14.01;78.58
49801;BME280;35698;50.232;30.540;2023-04-20T19:43:29;100146.05;;;14.03;78.80
49801;BME280;35698;50.232;30.540;2023-04-20T19:44:47;100155.34;;;13.36;81.61
49801;BME280;35698;50.232;30.540;2023-04-20T19:45:59;100150.58;;;13.28;82.95
49801;BME280;35698;50.232;30.540;2023-04-20T19:47:03;100151.50;;;13.14;84.25
49801;BME280;35698;50.232;30.540;2023-04-20T19:48:24;100146.20;;;13.14;84.70
49801;BME280;35698;50.232;30.540;2023-04-20T19:49:36;100146.55;;;13.23;84.59
49801;BME280;35698;50.232;30.540;2023-04-20T19:50:39;100154.16;;;13.14;84.50
49801;BME280;35698;50.232;30.540;2023-04-20T19:52:02;100155.35;;;13.23;84.40
49801;BME280;35698;50.232;30.540;2023-04-20T19:53:13;100156.30;;;13.35;82.89
49801;BME280;35698;50.232;30.540;2023-04-20T19:54:16;100158.53;;;13.28;83.18
49801;BME280;35698;50.232;30.540;2023-04-20T19:55:38;100158.64;;;13.27;82.91
49801;BME280;35698;50.232;30.540;2023-04-20T19:56:50;100154.74;;;13.82;80.19
49801;BME280;35698;50.232;30.540;2023-04-20T19:57:53;100148.70;;;13.80;79.46
49801;BME280;35698;50.232;30.540;2023-04-20T19:59:14;100146.56;;;13.85;78.77
49801;BME280;35698;50.232;30.540;2023-04-20T20:00:26;100152.53;;;13.99;78.07
49801;BME280;35698;50.232;30.540;2023-04-20T20:01:29;100156.70;;;13.91;77.22
49801;BME280;35698;50.232;30.540;2023-04-20T20:02:51;100146.08;;;13.91;77.20
49801;BME280;35698;50.232;30.540;2023-04-20T20:04:02;100146.89;;;14.04;76.37
49801;BME280;35698;50.232;30.540;2023-04-20T20:05:07;100141.63;;;13.91;76.70
49801;BME280;35698;50.232;30.540;2023-04-20T20:06:29;100144.50;;;13.88;76.56
49801;BME280;35698;50.232;30.540;2023-04-20T20:07:40;100142.88;;;13.98;75.88
49801;BME280;35698;50.232;30.540;2023-04-20T20:08:43;100132.36;;;13.97;76.08
49801;BME280;35698;50.232;30.540;2023-04-20T20:10:05;100140.11;;;14.00;75.86
49801;BME280;35698;50.232;30.540;2023-04-20T20:11:17;100142.09;;;14.09;75.33
49801;BME280;35698;50.232;30.540;2023-04-20T20:12:20;100131.40;;;13.98;75.19
49801;BME280;35698;50.232;30.540;2023-04-20T20:13:32;100136.78;;;14.09;74.53
49801;BME280;35698;50.232;30.540;2023-04-20T20:14:35;100138.78;;;13.45;76.66
49801;BME280;35698;50.232;30.540;2023-04-20T20:15:46;100130.80;;;13.58;77.65
49801;BME280;35698;50.232;30.540;2023-04-20T20:16:50;100135.17;;;13.46;77.69
49801;BME280;35698;50.232;30.540;2023-04-20T20:18:01;100140.34;;;13.60;77.25
49801;BME280;35698;50.232;30.540;2023-04-20T20:19:05;100138.45;;;13.50;77.24
49801;BME280;35698;50.232;30.540;2023-04-20T20:20:08;100137.72;;;13.48;77.22
49801;BME280;35698;50.232;30.540;2023-04-20T20:21:26;100135.04;;;13.60;77.37
49801;BME280;35698;50.232;30.540;2023-04-20T20:22:30;100142.06;;;13.49;76.92
49801;BME280;35698;50.232;30.540;2023-04-20T20:23:42;100138.66;;;13.59;76.14
49801;BME280;35698;50.232;30.540;2023-04-20T20:24:45;100135.39;;;13.43;75.92
49801;BME280;35698;50.232;30.540;2023-04-20T20:25:48;100142.02;;;13.74;75.81
49801;BME280;35698;50.232;30.540;2023-04-20T20:27:00;100144.30;;;14.15;73.96
49801;BME280;35698;50.232;30.540;2023-04-20T20:28:03;100147.91;;;14.14;73.56
49801;BME280;35698;50.232;30.540;2023-04-20T20:29:15;100139.89;;;14.27;73.65
49801;BME280;35698;50.232;30.540;2023-04-20T20:30:18;100142.48;;;13.55;74.77
49801;BME280;35698;50.232;30.540;2023-04-20T20:31:30;100140.11;;;13.76;75.04
49801;BME280;35698;50.232;30.540;2023-04-20T20:32:33;100132.69;;;13.68;74.94
49801;BME280;35698;50.232;30.540;2023-04-20T20:33:45;100138.41;;;13.75;75.17
49801;BME280;35698;50.232;30.540;2023-04-20T20:34:56;100140.21;;;13.74;74.86
49801;BME280;35698;50.232;30.540;2023-04-20T20:36:18;100143.53;;;13.65;75.12
49801;BME280;35698;50.232;30.540;2023-04-20T20:37:21;100140.22;;;13.98;74.36
49801;BME280;35698;50.232;30.540;2023-04-20T20:38:39;100142.44;;;14.28;73.14
49801;BME280;35698;50.232;30.540;2023-04-20T20:40:01;100138.87;;;14.17;72.72
49801;BME280;35698;50.232;30.540;2023-04-20T20:41:13;100136.39;;;14.26;72.66
49801;BME280;35698;50.232;30.540;2023-04-20T20:42:35;100133.87;;;13.64;74.03
49801;BME280;35698;50.232;30.540;2023-04-20T20:43:46;100136.08;;;13.70;74.51
49801;BME280;35698;50.232;30.540;2023-04-20T20:45:08;100136.84;;;13.60;74.29
49801;BME280;35698;50.232;30.540;2023-04-20T20:46:20;100135.13;;;13.71;74.40
49801;BME280;35698;50.232;30.540;2023-04-20T20:47:42;100124.53;;;13.59;74.70
49801;BME280;35698;50.232;30.540;2023-04-20T20:48:54;100131.63;;;13.71;74.41
49801;BME280;35698;50.232;30.540;2023-04-20T20:50:15;100124.64;;;13.57;74.77
49801;BME280;35698;50.232;30.540;2023-04-20T20:51:27;100126.64;;;13.66;74.64
49801;BME280;35698;50.232;30.540;2023-04-20T20:52:48;100134.22;;;13.47;75.16
49801;BME280;35698;50.232;30.540;2023-04-20T20:53:51;100133.37;;;13.47;75.36
49801;BME280;35698;50.232;30.540;2023-04-20T20:55:10;100130.80;;;13.58;75.39
49801;BME280;35698;50.232;30.540;2023-04-20T20:56:31;100129.02;;;13.45;75.47
49801;BME280;35698;50.232;30.540;2023-04-20T20:57:35;100126.59;;;13.30;75.61
49801;BME280;35698;50.232;30.540;2023-04-20T20:58:47;100129.95;;;13.57;75.56
49801;BME280;35698;50.232;30.540;2023-04-20T21:00:09;100125.93;;;13.52;74.93
49801;BME280;35698;50.232;30.540;2023-04-20T21:01:20;100120.59;;;13.64;75.64
49801;BME280;35698;50.232;30.540;2023-04-20T21:02:42;100117.64;;;13.56;75.47
49801;BME280;35698;50.232;30.540;2023-04-20T21:03:53;100120.16;;;13.70;75.42
49801;BME280;35698;50.232;30.540;2023-04-20T21:04:56;100122.62;;;13.61;74.88
49801;BME280;35698;50.232;30.540;2023-04-20T21:06:08;100120.16;;;13.70;75.19
49801;BME280;35698;50.232;30.540;2023-04-20T21:07:11;100120.38;;;13.67;74.44
49801;BME280;35698;50.232;30.540;2023-04-20T21:08:22;100116.24;;;13.63;74.96
49801;BME280;35698;50.232;30.540;2023-04-20T21:09:25;100109.59;;;13.45;74.92
49801;BME280;35698;50.232;30.540;2023-04-20T21:10:37;100116.68;;;13.57;74.99
49801;BME280;35698;50.232;30.540;2023-04-20T21:11:40;100117.23;;;13.50;75.05
49801;BME280;35698;50.232;30.540;2023-04-20T21:13:02;100127.63;;;13.53;74.50
49801;BME280;35698;50.232;30.540;2023-04-20T21:14:13;100119.75;;;13.64;74.53
49801;BME280;35698;50.232;30.540;2023-04-20T21:15:16;100112.96;;;13.60;74.54
49801;BME280;35698;50.232;30.540;2023-04-20T21:16:38;100116.90;;;13.54;74.66
49801;BME280;35698;50.232;30.540;2023-04-20T21:17:50;100111.89;;;13.62;74.89
49801;BME280;35698;50.232;30.540;2023-04-20T21:18:53;100114.36;;;13.53;75.29
49801;BME280;35698;50.232;30.540;2023-04-20T21:20:15;100116.16;;;13.52;75.04
49801;BME280;35698;50.232;30.540;2023-04-20T21:21:26;100109.98;;;13.64;74.95
49801;BME280;35698;50.232;30.540;2023-04-20T21:22:30;100115.94;;;13.55;75.02
49801;BME280;35698;50.232;30.540;2023-04-20T21:23:51;100115.61;;;13.60;74.86
49801;BME280;35698;50.232;30.540;2023-04-20T21:25:03;100104.97;;;13.72;75.11
49801;BME280;35698;50.232;30.540;2023-04-20T21:26:07;100100.43;;;13.62;74.93
49801;BME280;35698;50.232;30.540;2023-04-20T21:27:28;100101.28;;;13.62;74.97
49801;BME280;35698;50.232;30.540;2023-04-20T21:28:39;100105.08;;;13.71;74.60
49801;BME280;35698;50.232;30.540;2023-04-20T21:29:43;100105.84;;;13.60;74.87
49801;BME280;35698;50.232;30.540;2023-04-20T21:31:04;100105.00;;;13.60;75.01
49801;BME280;35698;50.232;30.540;2023-04-20T21:32:16;100102.20;;;13.74;74.36
49801;BME280;35698;50.232;30.540;2023-04-20T21:33:19;100114.55;;;13.62;73.74
49801;BME280;35698;50.232;30.540;2023-04-20T21:34:40;100110.52;;;13.57;74.35
49801;BME280;35698;50.232;30.540;2023-04-20T21:35:44;100108.72;;;13.57;74.29
49801;BME280;35698;50.232;30.540;2023-04-20T21:36:47;100108.83;;;13.56;74.64
49801;BME280;35698;50.232;30.540;2023-04-20T21:38:04;100111.45;;;13.68;74.92
49801;BME280;35698;50.232;30.540;2023-04-20T21:39:08;100102.56;;;13.57;74.69
49801;BME280;35698;50.232;30.540;2023-04-20T21:40:29;100094.49;;;13.58;74.77
49801;BME280;35698;50.232;30.540;2023-04-20T21:41:33;100097.26;;;13.57;74.54
49801;BME280;35698;50.232;30.540;2023-04-20T21:42:36;100095.78;;;13.53;74.24
49801;BME280;35698;50.232;30.540;2023-04-20T21:43:58;100101.20;;;13.51;74.15
49801;BME280;35698;50.232;30.540;2023-04-20T21:45:10;100095.23;;;13.60;74.53
49801;BME280;35698;50.232;30.540;2023-04-20T21:46:14;100091.76;;;13.47;74.24
49801;BME280;35698;50.232;30.540;2023-04-20T21:47:26;100090.25;;;13.56;74.42
49801;BME280;35698;50.232;30.540;2023-04-20T21:48:29;100091.98;;;13.44;74.56
49801;BME280;35698;50.232;30.540;2023-04-20T21:49:32;100090.28;;;13.43;74.69
49801;BME280;35698;50.232;30.540;2023-04-20T21:50:44;100081.44;;;13.55;75.14
49801;BME280;35698;50.232;30.540;2023-04-20T21:51:47;100083.27;;;13.42;75.36
49801;BME280;35698;50.232;30.540;2023-04-20T21:52:59;100090.47;;;13.53;74.74
49801;BME280;35698;50.232;30.540;2023-04-20T21:54:02;100083.72;;;13.36;74.73
49801;BME280;35698;50.232;30.540;2023-04-20T21:55:06;100077.67;;;13.34;75.83
49801;BME280;35698;50.232;30.540;2023-04-20T21:56:17;100087.12;;;13.74;75.54
49801;BME280;35698;50.232;30.540;2023-04-20T21:57:21;100084.36;;;13.27;76.65
49801;BME280;35698;50.232;30.540;2023-04-20T21:58:32;100082.45;;;13.29;76.66
49801;BME280;35698;50.232;30.540;2023-04-20T21:59:35;100085.97;;;13.17;76.46
49801;BME280;35698;50.232;30.540;2023-04-20T22:00:47;100078.95;;;13.28;76.76
49801;BME280;35698;50.232;30.540;2023-04-20T22:01:50;100085.12;;;13.16;76.84
49801;BME280;35698;50.232;30.540;2023-04-20T22:02:53;100091.77;;;13.09;76.81
49801;BME280;35698;50.232;30.540;2023-04-20T22:04:05;100086.89;;;13.16;76.80
49801;BME280;35698;50.232;30.540;2023-04-20T22:05:08;100083.50;;;13.01;77.18
49801;BME280;35698;50.232;30.540;2023-04-20T22:06:19;100081.06;;;13.10;76.97
49801;BME280;35698;50.232;30.540;2023-04-20T22:07:23;100082.91;;;12.97;77.05
49801;BME280;35698;50.232;30.540;2023-04-20T22:08:34;100089.97;;;13.09;77.02
49801;BME280;35698;50.232;30.540;2023-04-20T22:09:38;100088.52;;;12.93;76.96
49801;BME280;35698;50.232;30.540;2023-04-20T22:10:49;100084.25;;;13.03;77.02
49801;BME280;35698;50.232;30.540;2023-04-20T22:11:53;100080.78;;;12.90;76.99
49801;BME280;35698;50.232;30.540;2023-04-20T22:13:15;100074.84;;;12.86;76.97
49801;BME280;35698;50.232;30.540;2023-04-20T22:14:19;100069.65;;;12.85;77.53
49801;BME280;35698;50.232;30.540;2023-04-20T22:15:30;100067.20;;;12.94;77.32
49801;BME280;35698;50.232;30.540;2023-04-20T22:16:33;100065.41;;;12.82;77.06
49801;BME280;35698;50.232;30.540;2023-04-20T22:17:55;100060.31;;;12.79;76.86
49801;BME280;35698;50.232;30.540;2023-04-20T22:19:06;100059.78;;;12.87;77.25
49801;BME280;35698;50.232;30.540;2023-04-20T22:20:11;100062.54;;;12.72;77.56
49801;BME280;35698;50.232;30.540;2023-04-20T22:21:33;100070.59;;;12.71;77.47
49801;BME280;35698;50.232;30.540;2023-04-20T22:22:44;100068.76;;;13.09;77.49
49801;BME280;35698;50.232;30.540;2023-04-20T22:23:48;100066.73;;;13.13;76.90
49801;BME280;35698;50.232;30.540;2023-04-20T22:25:09;100057.53;;;13.19;76.15
49801;BME280;35698;50.232;30.540;2023-04-20T22:26:20;100059.09;;;13.34;75.40
49801;BME280;35698;50.232;30.540;2023-04-20T22:27:24;100058.69;;;13.27;75.10
49801;BME280;35698;50.232;30.540;2023-04-20T22:28:45;100062.19;;;13.28;75.08
49801;BME280;35698;50.232;30.540;2023-04-20T22:29:48;100056.77;;;13.29;75.35
49801;BME280;35698;50.232;30.540;2023-04-20T22:31:00;100053.35;;;13.40;75.43
49801;BME280;35698;50.232;30.540;2023-04-20T22:32:03;100058.25;;;13.33;75.80
49801;BME280;35698;50.232;30.540;2023-04-20T22:33:25;100054.75;;;13.33;75.05
49801;BME280;35698;50.232;30.540;2023-04-20T22:34:42;100050.15;;;13.48;74.60
49801;BME280;35698;50.232;30.540;2023-04-20T22:35:45;100044.55;;;13.39;74.57
49801;BME280;35698;50.232;30.540;2023-04-20T22:37:07;100051.66;;;13.39;74.68
49801;BME280;35698;50.232;30.540;2023-04-20T22:38:10;100049.11;;;13.37;74.15
49801;BME280;35698;50.232;30.540;2023-04-20T22:39:16;100045.91;;;13.45;73.82
49801;BME280;35698;50.232;30.540;2023-04-20T22:40:27;100043.11;;;13.59;73.77
49801;BME280;35698;50.232;30.540;2023-04-20T22:41:31;100041.23;;;13.49;73.47
49801;BME280;35698;50.232;30.540;2023-04-20T22:42:42;100031.64;;;13.59;73.76
49801;BME280;35698;50.232;30.540;2023-04-20T22:43:45;100036.14;;;13.45;73.30
49801;BME280;35698;50.232;30.540;2023-04-20T22:44:48;100038.91;;;13.44;73.78
49801;BME280;35698;50.232;30.540;2023-04-20T22:46:05;100040.16;;;13.51;74.46
49801;BME280;35698;50.232;30.540;2023-04-20T22:47:09;100037.10;;;13.44;74.20
49801;BME280;35698;50.232;30.540;2023-04-20T22:48:20;100045.65;;;13.61;73.61
49801;BME280;35698;50.232;30.540;2023-04-20T22:49:23;100039.42;;;13.49;73.99
49801;BME280;35698;50.232;30.540;2023-04-20T22:50:44;100028.07;;;13.47;73.88
49801;BME280;35698;50.232;30.540;2023-04-20T22:51:56;100035.59;;;13.53;73.53
49801;BME280;35698;50.232;30.540;2023-04-20T22:52:59;100031.46;;;13.49;73.71
49801;BME280;35698;50.232;30.540;2023-04-20T22:54:20;100030.61;;;13.49;73.70
49801;BME280;35698;50.232;30.540;2023-04-20T22:55:31;100028.14;;;13.58;73.48
49801;BME280;35698;50.232;30.540;2023-04-20T22:56:34;100033.27;;;13.49;73.32
49801;BME280;35698;50.232;30.540;2023-04-20T22:57:56;100029.44;;;13.53;72.90
49801;BME280;35698;50.232;30.540;2023-04-20T22:59:02;100031.13;;;13.54;73.26
49801;BME280;35698;50.232;30.540;2023-04-20T23:00:14;100020.58;;;13.65;72.54
49801;BME280;35698;50.232;30.540;2023-04-20T23:01:18;100026.22;;;13.60;72.59
49801;BME280;35698;50.232;30.540;2023-04-20T23:02:40;100025.16;;;13.63;72.48
49801;BME280;35698;50.232;30.540;2023-04-20T23:03:51;100019.91;;;13.74;72.11
49801;BME280;35698;50.232;30.540;2023-04-20T23:04:54;100016.12;;;13.65;71.78
49801;BME280;35698;50.232;30.540;2023-04-20T23:06:15;100021.20;;;13.68;71.58
49801;BME280;35698;50.232;30.540;2023-04-20T23:07:26;100018.72;;;13.78;71.47
49801;BME280;35698;50.232;30.540;2023-04-20T23:08:30;100020.84;;;13.49;71.84
49801;BME280;35698;50.232;30.540;2023-04-20T23:09:51;100016.34;;;13.62;71.77
49801;BME280;35698;50.232;30.540;2023-04-20T23:11:13;100015.27;;;13.65;71.22
49801;BME280;35698;50.232;30.540;2023-04-20T23:12:25;100013.97;;;13.70;71.28